sensor_id;sensor_type;location;lat;lon;timestamp;temperature;humidity
58993;DHT22;44782;0.000;0.000;2022-12-29T00:01:54;16.30;63.70
58993;DHT22;44782;0.000;0.000;2022-12-29T00:04:13;16.30;63.70
58993;DHT22;44782;0.000;0.000;2022-12-29T00:06:29;16.30;63.60
58993;DHT22;44782;0.000;0.000;2022-12-29T00:08:45;16.30;63.60
58993;DHT22;44782;0.000;0.000;2022-12-29T00:11:01;16.30;63.60
58993;DHT22;44782;0.000;0.000;2022-12-29T00:13:16;16.30;63.60
58993;DHT22;44782;0.000;0.000;2022-12-29T00:15:51;16.20;63.60
58993;DHT22;44782;0.000;0.000;2022-12-29T00:18:07;16.20;63.60
58993;DHT22;44782;0.000;0.000;2022-12-29T00:20:23;16.20;63.50
58993;DHT22;44782;0.000;0.000;2022-12-29T00:22:57;16.20;63.60
58993;DHT22;44782;0.000;0.000;2022-12-29T00:25:31;16.20;63.50
58993;DHT22;44782;0.000;0.000;2022-12-29T00:28:08;16.20;63.50
58993;DHT22;44782;0.000;0.000;2022-12-29T00:30:43;16.10;63.40
58993;DHT22;44782;0.000;0.000;2022-12-29T00:33:19;16.10;63.40
58993;DHT22;44782;0.000;0.000;2022-12-29T00:38:31;16.10;63.40
58993;DHT22;44782;0.000;0.000;2022-12-29T00:41:06;16.10;63.40
58993;DHT22;44782;0.000;0.000;2022-12-29T00:43:40;16.10;63.40
58993;DHT22;44782;0.000;0.000;2022-12-29T00:46:15;16.10;63.40
58993;DHT22;44782;0.000;0.000;2022-12-29T00:48:31;16.10;63.40
58993;DHT22;44782;0.000;0.000;2022-12-29T00:51:25;16.00;63.30
58993;DHT22;44782;0.000;0.000;2022-12-29T00:53:40;16.00;63.30
58993;DHT22;44782;0.000;0.000;2022-12-29T00:55:56;16.00;63.30
58993;DHT22;44782;0.000;0.000;2022-12-29T00:58:12;16.00;63.20
58993;DHT22;44782;0.000;0.000;2022-12-29T01:00:27;16.00;63.30
58993;DHT22;44782;0.000;0.000;2022-12-29T01:02:43;16.00;63.20
58993;DHT22;44782;0.000;0.000;2022-12-29T01:04:59;16.00;63.20
58993;DHT22;44782;0.000;0.000;2022-12-29T01:07:14;16.00;63.20
58993;DHT22;44782;0.000;0.000;2022-12-29T01:09:31;16.00;63.20
58993;DHT22;44782;0.000;0.000;2022-12-29T01:12:07;16.00;63.20
58993;DHT22;44782;0.000;0.000;2022-12-29T01:14:23;16.00;63.20
58993;DHT22;44782;0.000;0.000;2022-12-29T01:16:39;16.00;63.10
58993;DHT22;44782;0.000;0.000;2022-12-29T01:18:55;16.00;63.20
58993;DHT22;44782;0.000;0.000;2022-12-29T01:21:10;16.00;63.10
58993;DHT22;44782;0.000;0.000;2022-12-29T01:23:26;15.90;63.10
58993;DHT22;44782;0.000;0.000;2022-12-29T01:25:42;15.90;63.00
58993;DHT22;44782;0.000;0.000;2022-12-29T01:27:57;15.90;63.00
58993;DHT22;44782;0.000;0.000;2022-12-29T01:30:13;15.90;63.00
58993;DHT22;44782;0.000;0.000;2022-12-29T01:32:29;15.90;63.00
58993;DHT22;44782;0.000;0.000;2022-12-29T01:34:44;15.90;63.00
58993;DHT22;44782;0.000;0.000;2022-12-29T01:37:00;15.90;62.90
58993;DHT22;44782;0.000;0.000;2022-12-29T01:39:15;15.90;62.90
58993;DHT22;44782;0.000;0.000;2022-12-29T01:41:31;15.90;62.90
58993;DHT22;44782;0.000;0.000;2022-12-29T01:43:52;15.90;62.90
58993;DHT22;44782;0.000;0.000;2022-12-29T01:48:29;15.90;62.80
58993;DHT22;44782;0.000;0.000;2022-12-29T01:50:51;15.80;62.80
58993;DHT22;44782;0.000;0.000;2022-12-29T01:53:21;15.80;62.70
58993;DHT22;44782;0.000;0.000;2022-12-29T01:55:44;15.80;62.60
58993;DHT22;44782;0.000;0.000;2022-12-29T01:58:03;15.80;62.70
58993;DHT22;44782;0.000;0.000;2022-12-29T02:00:20;15.80;62.80
58993;DHT22;44782;0.000;0.000;2022-12-29T02:02:35;15.80;62.80
58993;DHT22;44782;0.000;0.000;2022-12-29T02:04:52;15.80;62.80
58993;DHT22;44782;0.000;0.000;2022-12-29T02:09:27;15.80;62.70
58993;DHT22;44782;0.000;0.000;2022-12-29T02:11:43;15.80;62.70
58993;DHT22;44782;0.000;0.000;2022-12-29T02:13:59;15.80;62.70
58993;DHT22;44782;0.000;0.000;2022-12-29T02:31:49;15.70;62.50
58993;DHT22;44782;0.000;0.000;2022-12-29T02:35:05;15.70;62.30
58993;DHT22;44782;0.000;0.000;2022-12-29T02:37:35;15.70;62.30
58993;DHT22;44782;0.000;0.000;2022-12-29T02:40:05;15.70;62.70
58993;DHT22;44782;0.000;0.000;2022-12-29T02:52:22;15.70;62.40
58993;DHT22;44782;0.000;0.000;2022-12-29T02:54:40;15.70;62.40
58993;DHT22;44782;0.000;0.000;2022-12-29T02:56:59;15.70;62.50
58993;DHT22;44782;0.000;0.000;2022-12-29T02:59:15;15.70;62.50
58993;DHT22;44782;0.000;0.000;2022-12-29T03:01:49;15.70;62.50
58993;DHT22;44782;0.000;0.000;2022-12-29T03:05:34;15.70;62.30
58993;DHT22;44782;0.000;0.000;2022-12-29T03:12:46;15.70;62.30
58993;DHT22;44782;0.000;0.000;2022-12-29T03:15:41;15.70;62.30
58993;DHT22;44782;0.000;0.000;2022-12-29T03:18:22;15.80;62.40
58993;DHT22;44782;0.000;0.000;2022-12-29T03:21:05;15.80;62.40
58993;DHT22;44782;0.000;0.000;2022-12-29T03:23:23;15.80;62.90
58993;DHT22;44782;0.000;0.000;2022-12-29T03:25:44;15.80;62.30
58993;DHT22;44782;0.000;0.000;2022-12-29T03:30:52;15.80;62.20
58993;DHT22;44782;0.000;0.000;2022-12-29T03:33:11;15.80;62.20
58993;DHT22;44782;0.000;0.000;2022-12-29T03:35:30;15.90;62.20
58993;DHT22;44782;0.000;0.000;2022-12-29T03:37:58;15.90;62.10
58993;DHT22;44782;0.000;0.000;2022-12-29T03:40:15;15.90;61.90
58993;DHT22;44782;0.000;0.000;2022-12-29T03:42:33;15.90;62.10
58993;DHT22;44782;0.000;0.000;2022-12-29T03:44:54;15.90;62.00
58993;DHT22;44782;0.000;0.000;2022-12-29T03:47:12;15.90;61.90
58993;DHT22;44782;0.000;0.000;2022-12-29T03:49:28;15.90;62.00
58993;DHT22;44782;0.000;0.000;2022-12-29T03:51:44;15.90;61.90
58993;DHT22;44782;0.000;0.000;2022-12-29T03:54:00;15.90;61.90
58993;DHT22;44782;0.000;0.000;2022-12-29T03:56:16;15.90;61.90
58993;DHT22;44782;0.000;0.000;2022-12-29T03:58:31;15.90;62.70
58993;DHT22;44782;0.000;0.000;2022-12-29T04:00:47;15.90;61.80
58993;DHT22;44782;0.000;0.000;2022-12-29T04:03:03;15.90;61.80
58993;DHT22;44782;0.000;0.000;2022-12-29T04:05:18;15.90;61.80
58993;DHT22;44782;0.000;0.000;2022-12-29T04:07:34;15.90;61.70
58993;DHT22;44782;0.000;0.000;2022-12-29T04:09:50;15.90;61.70
58993;DHT22;44782;0.000;0.000;2022-12-29T04:12:06;15.90;61.80
58993;DHT22;44782;0.000;0.000;2022-12-29T04:14:22;15.90;61.70
58993;DHT22;44782;0.000;0.000;2022-12-29T04:16:37;15.90;61.70
58993;DHT22;44782;0.000;0.000;2022-12-29T04:18:54;15.90;61.60
58993;DHT22;44782;0.000;0.000;2022-12-29T04:21:09;15.90;61.70
58993;DHT22;44782;0.000;0.000;2022-12-29T04:23:26;15.90;61.60
58993;DHT22;44782;0.000;0.000;2022-12-29T04:25:45;15.90;61.60
58993;DHT22;44782;0.000;0.000;2022-12-29T04:28:02;15.90;61.50
58993;DHT22;44782;0.000;0.000;2022-12-29T04:30:18;15.90;61.50
58993;DHT22;44782;0.000;0.000;2022-12-29T04:32:34;15.90;61.50
58993;DHT22;44782;0.000;0.000;2022-12-29T04:34:49;15.90;61.50
58993;DHT22;44782;0.000;0.000;2022-12-29T04:37:05;15.90;61.50
58993;DHT22;44782;0.000;0.000;2022-12-29T04:39:20;15.90;61.40
58993;DHT22;44782;0.000;0.000;2022-12-29T04:41:36;15.90;61.40
58993;DHT22;44782;0.000;0.000;2022-12-29T04:43:52;15.90;61.40
58993;DHT22;44782;0.000;0.000;2022-12-29T04:46:08;15.90;61.40
58993;DHT22;44782;0.000;0.000;2022-12-29T04:48:23;15.90;61.40
58993;DHT22;44782;0.000;0.000;2022-12-29T04:50:40;15.90;61.40
58993;DHT22;44782;0.000;0.000;2022-12-29T04:52:55;15.90;61.40
58993;DHT22;44782;0.000;0.000;2022-12-29T04:55:11;15.90;61.30
58993;DHT22;44782;0.000;0.000;2022-12-29T04:57:27;15.90;61.30
58993;DHT22;44782;0.000;0.000;2022-12-29T04:59:42;15.90;61.30
58993;DHT22;44782;0.000;0.000;2022-12-29T05:01:58;15.90;61.30
58993;DHT22;44782;0.000;0.000;2022-12-29T05:04:14;15.90;61.40
58993;DHT22;44782;0.000;0.000;2022-12-29T05:06:29;15.80;61.30
58993;DHT22;44782;0.000;0.000;2022-12-29T05:08:45;15.90;61.30
58993;DHT22;44782;0.000;0.000;2022-12-29T05:11:01;15.80;61.30
58993;DHT22;44782;0.000;0.000;2022-12-29T05:13:17;15.90;61.30
58993;DHT22;44782;0.000;0.000;2022-12-29T05:15:33;15.90;61.30
58993;DHT22;44782;0.000;0.000;2022-12-29T05:17:48;15.80;61.20
58993;DHT22;44782;0.000;0.000;2022-12-29T05:20:05;15.80;61.20
58993;DHT22;44782;0.000;0.000;2022-12-29T05:22:21;15.80;61.20
58993;DHT22;44782;0.000;0.000;2022-12-29T05:24:37;15.80;61.20
58993;DHT22;44782;0.000;0.000;2022-12-29T05:26:52;15.80;61.20
58993;DHT22;44782;0.000;0.000;2022-12-29T05:29:08;15.80;61.20
58993;DHT22;44782;0.000;0.000;2022-12-29T05:31:23;15.80;61.20
58993;DHT22;44782;0.000;0.000;2022-12-29T05:33:39;15.80;61.20
58993;DHT22;44782;0.000;0.000;2022-12-29T05:35:55;15.80;61.20
58993;DHT22;44782;0.000;0.000;2022-12-29T05:38:10;15.80;61.10
58993;DHT22;44782;0.000;0.000;2022-12-29T05:40:26;15.80;61.10
58993;DHT22;44782;0.000;0.000;2022-12-29T05:42:42;15.80;61.00
58993;DHT22;44782;0.000;0.000;2022-12-29T05:44:58;15.80;61.20
58993;DHT22;44782;0.000;0.000;2022-12-29T05:47:14;15.70;61.00
58993;DHT22;44782;0.000;0.000;2022-12-29T05:49:30;15.80;61.10
58993;DHT22;44782;0.000;0.000;2022-12-29T05:51:45;15.80;61.00
58993;DHT22;44782;0.000;0.000;2022-12-29T05:54:01;15.80;61.00
58993;DHT22;44782;0.000;0.000;2022-12-29T05:56:17;15.70;61.00
58993;DHT22;44782;0.000;0.000;2022-12-29T05:58:32;15.70;61.00
58993;DHT22;44782;0.000;0.000;2022-12-29T06:00:48;15.70;61.00
58993;DHT22;44782;0.000;0.000;2022-12-29T06:03:04;15.70;61.80
58993;DHT22;44782;0.000;0.000;2022-12-29T06:05:20;15.70;61.00
58993;DHT22;44782;0.000;0.000;2022-12-29T06:07:35;15.70;61.00
58993;DHT22;44782;0.000;0.000;2022-12-29T06:09:51;15.70;60.90
58993;DHT22;44782;0.000;0.000;2022-12-29T06:12:07;15.70;60.90
58993;DHT22;44782;0.000;0.000;2022-12-29T06:14:22;15.70;60.90
58993;DHT22;44782;0.000;0.000;2022-12-29T06:16:38;15.70;60.90
58993;DHT22;44782;0.000;0.000;2022-12-29T06:18:54;15.70;60.90
58993;DHT22;44782;0.000;0.000;2022-12-29T06:21:09;15.70;60.90
58993;DHT22;44782;0.000;0.000;2022-12-29T06:23:25;15.70;60.90
58993;DHT22;44782;0.000;0.000;2022-12-29T06:25:40;15.70;60.90
58993;DHT22;44782;0.000;0.000;2022-12-29T06:27:56;15.70;60.90
58993;DHT22;44782;0.000;0.000;2022-12-29T06:30:12;15.70;60.90
58993;DHT22;44782;0.000;0.000;2022-12-29T06:32:31;15.70;60.90
58993;DHT22;44782;0.000;0.000;2022-12-29T06:34:46;15.70;60.90
58993;DHT22;44782;0.000;0.000;2022-12-29T06:37:02;15.70;60.90
58993;DHT22;44782;0.000;0.000;2022-12-29T06:39:18;15.70;60.80
58993;DHT22;44782;0.000;0.000;2022-12-29T06:41:34;15.70;60.90
58993;DHT22;44782;0.000;0.000;2022-12-29T06:43:49;15.70;60.90
58993;DHT22;44782;0.000;0.000;2022-12-29T06:46:05;15.70;60.90
58993;DHT22;44782;0.000;0.000;2022-12-29T06:48:21;15.70;60.80
58993;DHT22;44782;0.000;0.000;2022-12-29T06:50:37;15.60;60.80
58993;DHT22;44782;0.000;0.000;2022-12-29T06:52:52;15.60;60.80
58993;DHT22;44782;0.000;0.000;2022-12-29T06:55:08;15.60;60.80
58993;DHT22;44782;0.000;0.000;2022-12-29T06:57:24;15.60;60.80
58993;DHT22;44782;0.000;0.000;2022-12-29T06:59:41;15.60;60.80
58993;DHT22;44782;0.000;0.000;2022-12-29T07:01:57;15.60;60.80
58993;DHT22;44782;0.000;0.000;2022-12-29T07:04:13;15.60;60.80
58993;DHT22;44782;0.000;0.000;2022-12-29T07:06:31;15.60;60.80
58993;DHT22;44782;0.000;0.000;2022-12-29T07:08:47;15.60;60.70
58993;DHT22;44782;0.000;0.000;2022-12-29T07:11:03;15.60;60.80
58993;DHT22;44782;0.000;0.000;2022-12-29T07:13:18;15.60;60.80
58993;DHT22;44782;0.000;0.000;2022-12-29T07:15:36;15.60;60.80
58993;DHT22;44782;0.000;0.000;2022-12-29T07:17:52;15.60;60.80
58993;DHT22;44782;0.000;0.000;2022-12-29T07:20:08;15.60;60.80
58993;DHT22;44782;0.000;0.000;2022-12-29T07:22:24;15.60;60.80
58993;DHT22;44782;0.000;0.000;2022-12-29T07:24:40;15.60;60.80
58993;DHT22;44782;0.000;0.000;2022-12-29T07:26:55;15.60;60.70
58993;DHT22;44782;0.000;0.000;2022-12-29T07:29:11;15.60;60.70
58993;DHT22;44782;0.000;0.000;2022-12-29T07:31:27;15.60;60.70
58993;DHT22;44782;0.000;0.000;2022-12-29T07:33:43;15.50;60.60
58993;DHT22;44782;0.000;0.000;2022-12-29T07:35:58;15.50;60.60
58993;DHT22;44782;0.000;0.000;2022-12-29T07:38:15;15.50;60.60
58993;DHT22;44782;0.000;0.000;2022-12-29T07:40:31;15.50;60.70
58993;DHT22;44782;0.000;0.000;2022-12-29T07:42:47;15.50;60.70
58993;DHT22;44782;0.000;0.000;2022-12-29T07:45:03;15.50;60.60
58993;DHT22;44782;0.000;0.000;2022-12-29T07:47:19;15.50;60.60
58993;DHT22;44782;0.000;0.000;2022-12-29T07:49:34;15.50;60.60
58993;DHT22;44782;0.000;0.000;2022-12-29T07:51:50;15.50;60.60
58993;DHT22;44782;0.000;0.000;2022-12-29T07:54:06;15.50;60.60
58993;DHT22;44782;0.000;0.000;2022-12-29T07:56:21;15.50;60.60
58993;DHT22;44782;0.000;0.000;2022-12-29T07:58:37;15.50;60.60
58993;DHT22;44782;0.000;0.000;2022-12-29T08:00:54;15.50;60.60
58993;DHT22;44782;0.000;0.000;2022-12-29T08:03:10;15.50;60.50
58993;DHT22;44782;0.000;0.000;2022-12-29T08:05:25;15.50;60.60
58993;DHT22;44782;0.000;0.000;2022-12-29T08:07:45;15.50;60.50
58993;DHT22;44782;0.000;0.000;2022-12-29T08:10:00;15.50;60.50
58993;DHT22;44782;0.000;0.000;2022-12-29T08:12:17;15.50;61.30
58993;DHT22;44782;0.000;0.000;2022-12-29T08:14:33;15.50;60.60
58993;DHT22;44782;0.000;0.000;2022-12-29T08:16:48;15.50;60.50
58993;DHT22;44782;0.000;0.000;2022-12-29T08:19:04;15.50;60.50
58993;DHT22;44782;0.000;0.000;2022-12-29T08:21:20;15.50;60.50
58993;DHT22;44782;0.000;0.000;2022-12-29T08:23:36;15.50;60.50
58993;DHT22;44782;0.000;0.000;2022-12-29T08:25:58;15.50;60.50
58993;DHT22;44782;0.000;0.000;2022-12-29T08:28:15;15.50;60.40
58993;DHT22;44782;0.000;0.000;2022-12-29T08:30:30;15.50;60.50
58993;DHT22;44782;0.000;0.000;2022-12-29T08:32:46;15.50;60.50
58993;DHT22;44782;0.000;0.000;2022-12-29T08:35:02;15.50;60.50
58993;DHT22;44782;0.000;0.000;2022-12-29T08:37:17;15.50;60.50
58993;DHT22;44782;0.000;0.000;2022-12-29T08:39:33;15.50;60.50
58993;DHT22;44782;0.000;0.000;2022-12-29T08:41:49;15.40;60.50
58993;DHT22;44782;0.000;0.000;2022-12-29T08:44:05;15.40;60.40
58993;DHT22;44782;0.000;0.000;2022-12-29T08:46:21;15.40;60.40
58993;DHT22;44782;0.000;0.000;2022-12-29T08:48:37;15.40;60.40
58993;DHT22;44782;0.000;0.000;2022-12-29T08:50:52;15.40;60.40
58993;DHT22;44782;0.000;0.000;2022-12-29T08:53:08;15.40;60.40
58993;DHT22;44782;0.000;0.000;2022-12-29T08:55:24;15.40;60.30
58993;DHT22;44782;0.000;0.000;2022-12-29T08:57:39;15.40;60.40
58993;DHT22;44782;0.000;0.000;2022-12-29T08:59:55;15.40;60.30
58993;DHT22;44782;0.000;0.000;2022-12-29T09:02:11;15.40;60.30
58993;DHT22;44782;0.000;0.000;2022-12-29T09:04:27;15.40;60.30
58993;DHT22;44782;0.000;0.000;2022-12-29T09:06:44;15.40;60.30
58993;DHT22;44782;0.000;0.000;2022-12-29T09:09:00;15.40;60.30
58993;DHT22;44782;0.000;0.000;2022-12-29T09:11:20;15.40;60.30
58993;DHT22;44782;0.000;0.000;2022-12-29T09:13:35;15.40;60.20
58993;DHT22;44782;0.000;0.000;2022-12-29T09:15:58;15.40;60.30
58993;DHT22;44782;0.000;0.000;2022-12-29T09:18:14;15.40;60.10
58993;DHT22;44782;0.000;0.000;2022-12-29T09:20:30;15.40;60.30
58993;DHT22;44782;0.000;0.000;2022-12-29T09:22:46;15.40;60.30
58993;DHT22;44782;0.000;0.000;2022-12-29T09:25:03;15.40;60.30
58993;DHT22;44782;0.000;0.000;2022-12-29T09:27:18;15.40;60.30
58993;DHT22;44782;0.000;0.000;2022-12-29T09:29:34;15.40;60.30
58993;DHT22;44782;0.000;0.000;2022-12-29T09:31:50;15.40;60.20
58993;DHT22;44782;0.000;0.000;2022-12-29T09:34:05;15.40;60.30
58993;DHT22;44782;0.000;0.000;2022-12-29T09:36:21;15.40;60.30
58993;DHT22;44782;0.000;0.000;2022-12-29T09:38:37;15.40;60.20
58993;DHT22;44782;0.000;0.000;2022-12-29T09:48:34;15.30;59.90
58993;DHT22;44782;0.000;0.000;2022-12-29T09:50:56;15.40;60.30
58993;DHT22;44782;0.000;0.000;2022-12-29T09:53:41;15.40;60.30
58993;DHT22;44782;0.000;0.000;2022-12-29T09:55:59;15.40;60.40
58993;DHT22;44782;0.000;0.000;2022-12-29T09:58:38;15.40;60.70
58993;DHT22;44782;0.000;0.000;2022-12-29T10:01:02;15.40;61.40
58993;DHT22;44782;0.000;0.000;2022-12-29T10:03:20;15.50;61.70
58993;DHT22;44782;0.000;0.000;2022-12-29T10:05:55;15.50;61.90
58993;DHT22;44782;0.000;0.000;2022-12-29T10:10:53;15.50;62.50
58993;DHT22;44782;0.000;0.000;2022-12-29T10:21:40;15.50;63.10
58993;DHT22;44782;0.000;0.000;2022-12-29T10:24:02;15.50;62.90
58993;DHT22;44782;0.000;0.000;2022-12-29T10:26:27;15.50;62.90
58993;DHT22;44782;0.000;0.000;2022-12-29T10:28:51;15.50;62.80
58993;DHT22;44782;0.000;0.000;2022-12-29T10:31:19;15.50;63.60
58993;DHT22;44782;0.000;0.000;2022-12-29T10:33:39;15.60;62.90
58993;DHT22;44782;0.000;0.000;2022-12-29T10:35:56;15.50;62.70
58993;DHT22;44782;0.000;0.000;2022-12-29T10:41:13;15.50;62.60
58993;DHT22;44782;0.000;0.000;2022-12-29T10:43:34;15.50;62.50
58993;DHT22;44782;0.000;0.000;2022-12-29T10:45:57;15.40;62.40
58993;DHT22;44782;0.000;0.000;2022-12-29T10:48:21;15.40;62.40
58993;DHT22;44782;0.000;0.000;2022-12-29T10:50:38;15.50;62.50
58993;DHT22;44782;0.000;0.000;2022-12-29T10:53:03;15.40;62.30
58993;DHT22;44782;0.000;0.000;2022-12-29T10:55:28;15.40;62.30
58993;DHT22;44782;0.000;0.000;2022-12-29T10:57:46;15.50;62.40
58993;DHT22;44782;0.000;0.000;2022-12-29T11:07:20;15.40;62.20
58993;DHT22;44782;0.000;0.000;2022-12-29T11:09:37;15.40;62.20
58993;DHT22;44782;0.000;0.000;2022-12-29T11:11:53;15.40;62.20
58993;DHT22;44782;0.000;0.000;2022-12-29T11:16:33;15.40;62.00
58993;DHT22;44782;0.000;0.000;2022-12-29T11:18:49;15.40;62.10
58993;DHT22;44782;0.000;0.000;2022-12-29T11:23:42;15.50;62.40
58993;DHT22;44782;0.000;0.000;2022-12-29T11:28:22;15.50;62.20
58993;DHT22;44782;0.000;0.000;2022-12-29T11:30:42;15.40;62.20
58993;DHT22;44782;0.000;0.000;2022-12-29T11:33:02;15.50;62.20
58993;DHT22;44782;0.000;0.000;2022-12-29T11:35:40;15.50;62.20
58993;DHT22;44782;0.000;0.000;2022-12-29T11:37:57;15.50;62.10
58993;DHT22;44782;0.000;0.000;2022-12-29T11:40:19;15.40;62.10
58993;DHT22;44782;0.000;0.000;2022-12-29T11:42:40;15.50;62.00
58993;DHT22;44782;0.000;0.000;2022-12-29T11:45:04;15.40;62.00
58993;DHT22;44782;0.000;0.000;2022-12-29T11:47:28;15.40;61.80
58993;DHT22;44782;0.000;0.000;2022-12-29T11:49:50;15.50;61.90
58993;DHT22;44782;0.000;0.000;2022-12-29T11:52:07;15.40;61.80
58993;DHT22;44782;0.000;0.000;2022-12-29T11:54:33;15.40;61.80
58993;DHT22;44782;0.000;0.000;2022-12-29T11:56:52;15.40;61.60
58993;DHT22;44782;0.000;0.000;2022-12-29T12:01:42;15.40;61.40
58993;DHT22;44782;0.000;0.000;2022-12-29T12:04:15;15.40;61.70
58993;DHT22;44782;0.000;0.000;2022-12-29T12:06:36;15.40;61.40
58993;DHT22;44782;0.000;0.000;2022-12-29T12:09:02;15.40;61.70
58993;DHT22;44782;0.000;0.000;2022-12-29T12:11:43;15.40;61.50
58993;DHT22;44782;0.000;0.000;2022-12-29T12:14:05;15.40;61.40
58993;DHT22;44782;0.000;0.000;2022-12-29T12:16:26;15.50;61.50
58993;DHT22;44782;0.000;0.000;2022-12-29T12:18:49;15.50;61.50
58993;DHT22;44782;0.000;0.000;2022-12-29T12:21:54;15.50;61.70
58993;DHT22;44782;0.000;0.000;2022-12-29T12:26:21;15.50;61.70
58993;DHT22;44782;0.000;0.000;2022-12-29T12:34:01;15.50;61.40
58993;DHT22;44782;0.000;0.000;2022-12-29T12:44:24;15.50;61.80
58993;DHT22;44782;0.000;0.000;2022-12-29T13:07:36;15.50;61.90
58993;DHT22;44782;0.000;0.000;2022-12-29T13:10:19;15.50;62.10
58993;DHT22;44782;0.000;0.000;2022-12-29T13:12:55;15.50;62.20
58993;DHT22;44782;0.000;0.000;2022-12-29T13:17:46;15.50;62.40
58993;DHT22;44782;0.000;0.000;2022-12-29T13:30:19;15.60;62.50
58993;DHT22;44782;0.000;0.000;2022-12-29T13:37:34;15.60;62.50
58993;DHT22;44782;0.000;0.000;2022-12-29T13:39:55;15.60;62.40
58993;DHT22;44782;0.000;0.000;2022-12-29T13:42:11;15.70;62.50
58993;DHT22;44782;0.000;0.000;2022-12-29T13:44:44;15.60;62.40
58993;DHT22;44782;0.000;0.000;2022-12-29T13:49:38;15.60;62.30
58993;DHT22;44782;0.000;0.000;2022-12-29T13:52:03;15.60;62.30
58993;DHT22;44782;0.000;0.000;2022-12-29T13:57:05;15.60;62.30
58993;DHT22;44782;0.000;0.000;2022-12-29T13:59:37;15.60;62.10
58993;DHT22;44782;0.000;0.000;2022-12-29T14:02:03;15.60;62.20
58993;DHT22;44782;0.000;0.000;2022-12-29T14:04:26;15.60;62.40
58993;DHT22;44782;0.000;0.000;2022-12-29T14:06:44;15.60;62.20
58993;DHT22;44782;0.000;0.000;2022-12-29T14:09:02;15.60;62.20
58993;DHT22;44782;0.000;0.000;2022-12-29T14:11:22;15.60;62.20
58993;DHT22;44782;0.000;0.000;2022-12-29T14:13:42;15.60;62.20
58993;DHT22;44782;0.000;0.000;2022-12-29T14:15:59;15.60;62.30
58993;DHT22;44782;0.000;0.000;2022-12-29T14:18:28;15.60;62.30
58993;DHT22;44782;0.000;0.000;2022-12-29T14:20:56;15.60;62.30
58993;DHT22;44782;0.000;0.000;2022-12-29T14:28:19;15.60;62.10
58993;DHT22;44782;0.000;0.000;2022-12-29T14:30:51;15.60;62.10
58993;DHT22;44782;0.000;0.000;2022-12-29T14:33:13;15.60;62.00
58993;DHT22;44782;0.000;0.000;2022-12-29T14:35:44;15.60;62.10
58993;DHT22;44782;0.000;0.000;2022-12-29T14:38:15;15.60;61.90
58993;DHT22;44782;0.000;0.000;2022-12-29T14:40:33;15.60;61.90
58993;DHT22;44782;0.000;0.000;2022-12-29T14:42:51;15.50;62.00
58993;DHT22;44782;0.000;0.000;2022-12-29T14:45:29;15.50;62.00
58993;DHT22;44782;0.000;0.000;2022-12-29T14:47:47;15.60;61.90
58993;DHT22;44782;0.000;0.000;2022-12-29T14:52:31;15.60;62.00
58993;DHT22;44782;0.000;0.000;2022-12-29T14:54:52;15.50;62.10
58993;DHT22;44782;0.000;0.000;2022-12-29T14:59:37;15.60;62.00
58993;DHT22;44782;0.000;0.000;2022-12-29T15:01:53;15.60;62.10
58993;DHT22;44782;0.000;0.000;2022-12-29T15:06:37;15.60;61.90
58993;DHT22;44782;0.000;0.000;2022-12-29T15:09:26;15.60;62.20
58993;DHT22;44782;0.000;0.000;2022-12-29T15:11:51;15.60;62.30
58993;DHT22;44782;0.000;0.000;2022-12-29T15:14:34;15.60;62.50
58993;DHT22;44782;0.000;0.000;2022-12-29T15:16:49;15.70;62.90
58993;DHT22;44782;0.000;0.000;2022-12-29T15:19:24;15.70;62.70
58993;DHT22;44782;0.000;0.000;2022-12-29T15:21:42;15.80;62.80
58993;DHT22;44782;0.000;0.000;2022-12-29T15:23:58;15.80;62.70
58993;DHT22;44782;0.000;0.000;2022-12-29T15:26:13;15.80;62.60
58993;DHT22;44782;0.000;0.000;2022-12-29T15:28:42;15.90;62.50
58993;DHT22;44782;0.000;0.000;2022-12-29T15:31:06;16.00;62.50
58993;DHT22;44782;0.000;0.000;2022-12-29T15:33:23;16.00;62.50
58993;DHT22;44782;0.000;0.000;2022-12-29T15:35:39;16.00;63.00
58993;DHT22;44782;0.000;0.000;2022-12-29T15:37:55;16.00;62.30
58993;DHT22;44782;0.000;0.000;2022-12-29T15:40:39;16.10;62.40
58993;DHT22;44782;0.000;0.000;2022-12-29T15:45:33;16.10;62.20
58993;DHT22;44782;0.000;0.000;2022-12-29T15:47:52;16.10;62.20
58993;DHT22;44782;0.000;0.000;2022-12-29T15:52:32;16.20;62.10
58993;DHT22;44782;0.000;0.000;2022-12-29T15:54:50;16.20;62.30
58993;DHT22;44782;0.000;0.000;2022-12-29T15:57:23;16.20;61.90
58993;DHT22;44782;0.000;0.000;2022-12-29T15:59:46;16.20;61.40
58993;DHT22;44782;0.000;0.000;2022-12-29T16:02:02;16.10;61.30
58993;DHT22;44782;0.000;0.000;2022-12-29T16:04:18;16.10;61.40
58993;DHT22;44782;0.000;0.000;2022-12-29T16:06:36;16.10;61.40
58993;DHT22;44782;0.000;0.000;2022-12-29T16:09:05;16.10;62.10
58993;DHT22;44782;0.000;0.000;2022-12-29T16:11:24;16.10;61.00
58993;DHT22;44782;0.000;0.000;2022-12-29T16:13:41;16.00;61.20
58993;DHT22;44782;0.000;0.000;2022-12-29T16:16:06;16.00;61.10
58993;DHT22;44782;0.000;0.000;2022-12-29T16:18:29;16.00;60.90
58993;DHT22;44782;0.000;0.000;2022-12-29T16:20:45;16.00;60.90
58993;DHT22;44782;0.000;0.000;2022-12-29T16:23:01;16.00;61.00
58993;DHT22;44782;0.000;0.000;2022-12-29T16:27:41;16.00;60.60
58993;DHT22;44782;0.000;0.000;2022-12-29T16:29:57;16.00;60.90
58993;DHT22;44782;0.000;0.000;2022-12-29T16:39:25;15.90;60.60
58993;DHT22;44782;0.000;0.000;2022-12-29T16:41:42;15.90;60.60
58993;DHT22;44782;0.000;0.000;2022-12-29T16:44:16;15.90;60.80
58993;DHT22;44782;0.000;0.000;2022-12-29T16:46:32;15.90;60.30
58993;DHT22;44782;0.000;0.000;2022-12-29T16:48:52;15.90;60.70
58993;DHT22;44782;0.000;0.000;2022-12-29T16:51:18;15.90;60.50
58993;DHT22;44782;0.000;0.000;2022-12-29T16:53:40;15.90;60.30
58993;DHT22;44782;0.000;0.000;2022-12-29T16:56:06;15.80;60.40
58993;DHT22;44782;0.000;0.000;2022-12-29T16:58:27;15.80;60.40
58993;DHT22;44782;0.000;0.000;2022-12-29T17:00:45;15.80;60.40
58993;DHT22;44782;0.000;0.000;2022-12-29T17:03:02;15.80;60.50
58993;DHT22;44782;0.000;0.000;2022-12-29T17:05:19;15.80;60.50
58993;DHT22;44782;0.000;0.000;2022-12-29T17:07:34;15.80;60.50
58993;DHT22;44782;0.000;0.000;2022-12-29T17:09:51;15.80;60.40
58993;DHT22;44782;0.000;0.000;2022-12-29T17:12:15;15.80;60.50
58993;DHT22;44782;0.000;0.000;2022-12-29T17:15:06;15.70;60.30
58993;DHT22;44782;0.000;0.000;2022-12-29T17:17:40;15.80;60.00
58993;DHT22;44782;0.000;0.000;2022-12-29T17:19:59;15.70;60.10
58993;DHT22;44782;0.000;0.000;2022-12-29T17:22:23;15.70;60.40
58993;DHT22;44782;0.000;0.000;2022-12-29T17:24:40;15.70;60.30
58993;DHT22;44782;0.000;0.000;2022-12-29T17:26:58;15.70;60.30
58993;DHT22;44782;0.000;0.000;2022-12-29T17:29:40;15.70;60.30
58993;DHT22;44782;0.000;0.000;2022-12-29T17:31:57;15.70;59.70
58993;DHT22;44782;0.000;0.000;2022-12-29T17:34:13;15.70;60.30
58993;DHT22;44782;0.000;0.000;2022-12-29T17:36:29;15.70;60.30
58993;DHT22;44782;0.000;0.000;2022-12-29T17:38:45;15.70;60.20
58993;DHT22;44782;0.000;0.000;2022-12-29T17:41:01;15.70;60.20
58993;DHT22;44782;0.000;0.000;2022-12-29T17:43:17;15.70;60.10
58993;DHT22;44782;0.000;0.000;2022-12-29T17:45:33;15.60;60.00